createdAt,value
2019-02-09T00:00:41.438Z,445.00
2019-02-09T00:01:41.435Z,444.06
2019-02-09T00:02:41.425Z,444.91
2019-02-09T00:03:41.424Z,443.06
2019-02-09T00:04:41.427Z,443.46
2019-02-09T00:05:41.402Z,444.09
2019-02-09T00:06:41.400Z,443.32
2019-02-09T00:07:41.374Z,445.35
2019-02-09T00:08:41.366Z,440.95
2019-02-09T00:09:41.363Z,443.66
2019-02-09T00:10:41.340Z,445.16
2019-02-09T00:11:41.360Z,444.84
2019-02-09T00:12:41.308Z,445.09
2019-02-09T00:13:41.313Z,446.85
2019-02-09T00:14:41.298Z,442.72
2019-02-09T00:15:41.321Z,444.69
2019-02-09T00:16:41.279Z,445.87
2019-02-09T00:17:41.264Z,441.91
2019-02-09T00:18:41.246Z,444.34
2019-02-09T00:19:41.243Z,443.37
2019-02-09T00:20:41.227Z,441.46
2019-02-09T00:21:41.309Z,444.64
2019-02-09T00:22:41.209Z,440.65
2019-02-09T00:23:41.206Z,442.74
2019-02-09T00:24:41.193Z,444.44
2019-02-09T00:25:41.183Z,444.60
2019-02-09T00:26:41.166Z,442.75
2019-02-09T00:27:41.180Z,444.07
2019-02-09T00:28:41.156Z,439.82
2019-02-09T00:29:46.123Z,443.49
2019-02-09T00:30:42.121Z,443.59
2019-02-09T00:31:41.101Z,442.71
2019-02-09T00:32:41.084Z,443.85
2019-02-09T00:33:41.087Z,440.47
2019-02-09T00:34:41.080Z,442.36
2019-02-09T00:35:41.092Z,443.33
2019-02-09T00:36:41.060Z,442.00
2019-02-09T00:37:41.062Z,440.62
2019-02-09T00:38:41.053Z,440.97
2019-02-09T00:39:41.025Z,441.78
2019-02-09T00:40:41.002Z,446.65
2019-02-09T00:41:40.989Z,445.38
2019-02-09T00:42:40.988Z,439.75
2019-02-09T00:43:40.980Z,441.78
2019-02-09T00:44:40.984Z,442.39
2019-02-09T00:45:40.949Z,444.59
2019-02-09T00:46:40.950Z,439.42
2019-02-09T00:47:40.932Z,443.09
2019-02-09T00:48:40.933Z,442.06
2019-02-09T00:49:40.955Z,444.10
2019-02-09T00:50:40.897Z,441.11
2019-02-09T00:51:40.887Z,446.10
2019-02-09T00:52:40.871Z,445.47
2019-02-09T00:53:40.865Z,442.43
2019-02-09T00:54:40.864Z,442.29
2019-02-09T00:55:40.885Z,440.33
2019-02-09T00:56:40.847Z,440.89
2019-02-09T00:57:40.844Z,443.12
2019-02-09T00:58:40.807Z,444.12
2019-02-09T00:59:40.793Z,440.14
2019-02-09T01:00:40.791Z,443.72
2019-02-09T01:01:40.800Z,443.70
2019-02-09T01:02:40.770Z,440.46
2019-02-09T01:03:40.755Z,439.60
2019-02-09T01:04:40.774Z,441.90
2019-02-09T01:05:40.731Z,447.13
2019-02-09T01:06:40.729Z,443.15
2019-02-09T01:07:40.754Z,442.19
2019-02-09T01:08:40.708Z,439.75
2019-02-09T01:09:40.693Z,444.23
2019-02-09T01:10:40.680Z,446.04
2019-02-09T01:11:40.654Z,442.30
2019-02-09T01:12:40.674Z,440.97
2019-02-09T01:13:40.636Z,445.69
2019-02-09T01:14:40.641Z,443.49
2019-02-09T01:15:40.630Z,438.70
2019-02-09T01:16:40.610Z,444.32
2019-02-09T01:17:40.599Z,444.00
2019-02-09T01:18:40.632Z,440.76
2019-02-09T01:19:40.590Z,437.56
2019-02-09T01:20:40.577Z,440.99
2019-02-09T01:21:40.571Z,443.62
2019-02-09T01:22:40.555Z,441.86
2019-02-09T01:23:40.536Z,444.50
2019-02-09T01:24:40.537Z,444.01
2019-02-09T01:25:40.515Z,445.63
2019-02-09T01:26:40.505Z,442.82
2019-02-09T01:27:40.496Z,444.41
2019-02-09T01:28:40.492Z,444.71
2019-02-09T01:29:40.508Z,440.28
2019-02-09T01:30:40.455Z,444.88
2019-02-09T01:31:40.457Z,444.59
2019-02-09T01:32:40.451Z,445.73
2019-02-09T01:33:40.440Z,447.22
2019-02-09T01:34:40.410Z,444.97
2019-02-09T01:35:40.440Z,446.88
2019-02-09T01:36:40.388Z,443.45
2019-02-09T01:37:40.382Z,440.51
2019-02-09T01:38:40.375Z,442.73
2019-02-09T01:39:40.361Z,443.80
2019-02-09T01:40:40.352Z,443.82
2019-02-09T01:41:40.382Z,446.51
2019-02-09T01:42:40.324Z,444.73
2019-02-09T01:43:40.320Z,444.09
2019-02-09T01:44:40.300Z,440.09
2019-02-09T01:45:40.302Z,441.53
2019-02-09T01:46:40.308Z,443.53
2019-02-09T01:47:40.309Z,442.96
2019-02-09T01:48:40.262Z,446.27
2019-02-09T01:49:40.258Z,445.59
2019-02-09T01:50:40.243Z,442.98
2019-02-09T01:51:40.238Z,443.99
2019-02-09T01:52:40.241Z,441.71
2019-02-09T01:53:40.229Z,441.89
2019-02-09T01:54:40.193Z,438.02
2019-02-09T01:55:40.177Z,444.54
2019-02-09T01:56:40.178Z,443.75
2019-02-09T01:57:40.161Z,444.15
2019-02-09T01:58:40.191Z,447.29
2019-02-09T01:59:40.144Z,443.39
2019-02-09T02:00:40.150Z,444.95
2019-02-09T02:01:40.126Z,443.20
2019-02-09T02:02:40.111Z,443.87
2019-02-09T02:03:40.098Z,439.76
2019-02-09T02:04:40.131Z,444.69
2019-02-09T02:05:40.081Z,442.87
2019-02-09T02:06:40.079Z,441.62
2019-02-09T02:07:40.054Z,445.49
2019-02-09T02:08:40.045Z,445.52
2019-02-09T02:09:40.061Z,441.95
2019-02-09T02:10:40.034Z,443.96
2019-02-09T02:11:40.013Z,445.82
2019-02-09T02:12:40.018Z,445.53
2019-02-09T02:13:40.036Z,445.97
2019-02-09T02:14:39.968Z,446.74
2019-02-09T02:15:40.000Z,442.94
2019-02-09T02:16:39.947Z,446.04
2019-02-09T02:17:39.946Z,443.37
2019-02-09T02:18:39.934Z,443.26
2019-02-09T02:19:39.931Z,446.44
2019-02-09T02:20:39.908Z,443.85
2019-02-09T02:21:39.914Z,439.12
2019-02-09T02:22:39.891Z,445.37
2019-02-09T02:23:39.888Z,447.07
2019-02-09T02:24:39.875Z,446.48
2019-02-09T02:25:39.901Z,443.90
2019-02-09T02:26:39.844Z,448.14
2019-02-09T02:27:39.880Z,442.29
2019-02-09T02:28:39.822Z,444.90
2019-02-09T02:29:39.813Z,446.66
2019-02-09T02:30:39.806Z,448.85
2019-02-09T02:31:39.807Z,447.46
2019-02-09T02:32:39.789Z,444.45
2019-02-09T02:33:39.806Z,445.87
2019-02-09T02:34:39.764Z,440.66
2019-02-09T02:35:39.749Z,442.70
2019-02-09T02:36:39.749Z,443.91
2019-02-09T02:37:39.743Z,441.35
2019-02-09T02:38:39.710Z,444.53
2019-02-09T02:39:39.726Z,445.92
2019-02-09T02:40:39.694Z,446.11
2019-02-09T02:41:39.709Z,449.51
2019-02-09T02:42:39.677Z,447.53
2019-02-09T02:43:39.667Z,445.18
2019-02-09T02:44:39.696Z,445.97
2019-02-09T02:45:39.644Z,442.32
2019-02-09T02:46:39.626Z,445.20
2019-02-09T02:47:39.618Z,443.98
2019-02-09T02:48:39.602Z,446.86
2019-02-09T02:49:39.589Z,445.56
2019-02-09T02:50:39.621Z,444.93
2019-02-09T02:51:39.581Z,446.39
2019-02-09T02:52:39.568Z,445.47
2019-02-09T02:53:39.546Z,449.78
2019-02-09T02:54:39.556Z,445.96
2019-02-09T02:55:39.562Z,447.76
2019-02-09T02:56:39.526Z,445.62
2019-02-09T02:57:39.512Z,445.90
2019-02-09T02:58:39.499Z,443.06
2019-02-09T02:59:39.482Z,450.74
2019-02-09T03:00:39.495Z,445.78
2019-02-09T03:01:39.466Z,445.05
2019-02-09T03:02:39.472Z,445.73
2019-02-09T03:03:39.445Z,442.54
2019-02-09T03:04:39.455Z,445.79
2019-02-09T03:05:39.459Z,452.09
2019-02-09T03:06:39.427Z,449.48
2019-02-09T03:07:39.438Z,443.78
2019-02-09T03:08:39.407Z,447.27
2019-02-09T03:09:39.407Z,445.42
2019-02-09T03:10:39.387Z,448.40
2019-02-09T03:11:39.384Z,447.21
2019-02-09T03:12:39.360Z,442.90
2019-02-09T03:13:39.381Z,443.99
2019-02-09T03:14:39.367Z,441.74
2019-02-09T03:15:39.327Z,442.17
2019-02-09T03:16:39.305Z,444.47
2019-02-09T03:17:39.305Z,443.83
2019-02-09T03:18:39.276Z,445.46
2019-02-09T03:19:39.285Z,444.58
2019-02-09T03:20:39.259Z,446.54
2019-02-09T03:21:39.248Z,447.58
2019-02-09T03:22:39.240Z,445.42
2019-02-09T03:23:39.236Z,447.73
2019-02-09T03:24:39.240Z,450.76
2019-02-09T03:25:39.205Z,447.10
2019-02-09T03:26:39.197Z,450.00
2019-02-09T03:27:39.186Z,446.46
2019-02-09T03:28:39.175Z,445.25
2019-02-09T03:29:39.178Z,443.00
2019-02-09T03:30:47.735Z,442.66
2019-02-09T03:31:40.142Z,447.95
2019-02-09T03:32:39.166Z,443.24
2019-02-09T03:33:39.134Z,446.95
2019-02-09T03:34:39.114Z,448.37
2019-02-09T03:35:39.092Z,450.94
2019-02-09T03:36:39.101Z,445.26
2019-02-09T03:37:39.074Z,438.89
2019-02-09T03:38:39.070Z,443.48
2019-02-09T03:39:39.045Z,451.17
2019-02-09T03:40:39.047Z,446.69
2019-02-09T03:41:39.034Z,444.73
2019-02-09T03:42:39.016Z,445.89
2019-02-09T03:43:39.046Z,441.14
2019-02-09T03:44:38.995Z,448.62
2019-02-09T03:45:38.983Z,449.64
2019-02-09T03:46:38.982Z,450.31
2019-02-09T03:47:38.968Z,447.45
2019-02-09T03:48:38.978Z,450.23
2019-02-09T03:49:38.959Z,447.84
2019-02-09T03:50:38.926Z,450.43
2019-02-09T03:51:38.911Z,447.56
2019-02-09T03:52:38.897Z,445.00
2019-02-09T03:53:38.886Z,441.86
2019-02-09T03:54:38.920Z,446.84
2019-02-09T03:55:38.881Z,446.74
2019-02-09T03:56:38.858Z,444.00
2019-02-09T03:57:38.851Z,440.27
2019-02-09T03:58:38.860Z,449.69
2019-02-09T03:59:38.840Z,441.41
2019-02-09T04:00:38.850Z,451.78
2019-02-09T04:01:38.821Z,455.07
2019-02-09T04:02:38.796Z,444.67
2019-02-09T04:03:38.792Z,444.21
2019-02-09T04:04:38.775Z,447.19
2019-02-09T04:05:38.802Z,446.74
2019-02-09T04:06:38.766Z,438.20
2019-02-09T04:07:38.762Z,454.79
2019-02-09T04:08:38.739Z,454.41
2019-02-09T04:09:38.756Z,446.43
2019-02-09T04:10:38.707Z,444.27
2019-02-09T04:11:38.750Z,446.13
2019-02-09T04:12:38.691Z,444.34
2019-02-09T04:13:38.691Z,452.10
2019-02-09T04:14:38.663Z,440.47
2019-02-09T04:15:38.658Z,439.96
2019-02-09T04:16:38.650Z,440.37
2019-02-09T04:17:38.656Z,449.93
2019-02-09T04:18:38.632Z,445.87
2019-02-09T04:19:38.631Z,453.54
2019-02-09T04:20:38.607Z,446.75
2019-02-09T04:21:38.605Z,449.32
2019-02-09T04:22:38.619Z,447.55
2019-02-09T04:23:38.576Z,446.44
2019-02-09T04:24:38.573Z,441.72
2019-02-09T04:25:38.553Z,445.74
2019-02-09T04:26:38.545Z,437.02
2019-02-09T04:27:38.530Z,441.25
2019-02-09T04:28:38.545Z,451.10
2019-02-09T04:29:38.513Z,443.22
2019-02-09T04:30:38.506Z,444.28
2019-02-09T04:31:38.501Z,450.96
2019-02-09T04:32:38.481Z,447.86
2019-02-09T04:33:38.512Z,449.50
2019-02-09T04:34:38.457Z,454.71
2019-02-09T04:35:38.437Z,446.71
2019-02-09T04:36:38.430Z,439.12
2019-02-09T04:37:38.414Z,444.74
2019-02-09T04:38:38.421Z,448.33
2019-02-09T04:39:38.432Z,442.10
2019-02-09T04:40:38.393Z,449.17
2019-02-09T04:41:38.391Z,449.88
2019-02-09T04:42:38.374Z,438.39
2019-02-09T04:43:38.383Z,451.95
2019-02-09T04:44:38.368Z,446.86
2019-02-09T04:45:38.338Z,454.39
2019-02-09T04:46:38.340Z,446.24
2019-02-09T04:47:38.313Z,459.73
2019-02-09T04:48:38.346Z,449.06
2019-02-09T04:49:38.287Z,447.00
2019-02-09T04:50:38.282Z,441.31
2019-02-09T04:51:38.274Z,441.24
2019-02-09T04:52:38.267Z,450.26
2019-02-09T04:53:38.277Z,455.23
2019-02-09T04:54:38.233Z,454.17
2019-02-09T04:55:38.221Z,445.42
2019-02-09T04:56:38.206Z,455.61
2019-02-09T04:57:38.199Z,455.12
2019-02-09T04:58:38.219Z,452.08
2019-02-09T04:59:38.181Z,450.38
2019-02-09T05:00:38.164Z,450.32
2019-02-09T05:01:38.154Z,439.21
2019-02-09T05:02:38.148Z,452.68
2019-02-09T05:03:38.138Z,453.38
2019-02-09T05:04:38.151Z,451.50
2019-02-09T05:05:38.146Z,446.54
2019-02-09T05:06:38.096Z,447.40
2019-02-09T05:07:38.086Z,446.68
2019-02-09T05:08:38.103Z,443.15
2019-02-09T05:09:38.108Z,447.47
2019-02-09T05:10:38.070Z,446.11
2019-02-09T05:11:38.061Z,438.16
2019-02-09T05:12:38.048Z,447.62
2019-02-09T05:13:38.030Z,447.23
2019-02-09T05:14:38.008Z,450.64
2019-02-09T05:15:38.034Z,449.58
2019-02-09T05:16:37.996Z,452.14
2019-02-09T05:17:37.988Z,446.89
2019-02-09T05:18:37.970Z,450.77
2019-02-09T05:19:37.959Z,446.73
2019-02-09T05:20:37.944Z,452.23
2019-02-09T05:21:38.364Z,438.49
2019-02-09T05:22:37.960Z,444.62
2019-02-09T05:23:37.928Z,454.86
2019-02-09T05:24:37.934Z,438.82
2019-02-09T05:25:37.904Z,450.31
2019-02-09T05:26:37.913Z,441.90
2019-02-09T05:27:37.897Z,450.25
2019-02-09T05:28:37.878Z,452.07
2019-02-09T05:29:37.847Z,452.83
2019-02-09T05:30:37.847Z,449.22
2019-02-09T05:31:37.864Z,451.15
2019-02-09T05:32:37.828Z,449.41
2019-02-09T05:33:37.821Z,435.98
2019-02-09T05:34:37.809Z,449.39
2019-02-09T05:35:37.791Z,440.60
2019-02-09T05:36:37.818Z,434.51
2019-02-09T05:37:37.767Z,455.53
2019-02-09T05:38:37.750Z,451.54
2019-02-09T05:39:37.736Z,438.78
2019-02-09T05:40:37.720Z,448.53
2019-02-09T05:41:37.732Z,454.95
2019-02-09T05:42:37.741Z,453.07
2019-02-09T05:43:37.699Z,449.66
2019-02-09T05:44:37.697Z,438.35
2019-02-09T05:45:37.688Z,455.27
2019-02-09T05:46:37.692Z,453.55
2019-02-09T05:47:37.656Z,447.36
2019-02-09T05:48:37.663Z,451.79
2019-02-09T05:49:37.639Z,454.39
2019-02-09T05:50:37.640Z,445.40
2019-02-09T05:51:37.623Z,448.95
2019-02-09T05:52:37.648Z,449.66
2019-02-09T05:53:37.579Z,447.19
2019-02-09T05:54:37.594Z,448.83
2019-02-09T05:55:37.573Z,450.61
2019-02-09T05:56:37.588Z,446.93
2019-02-09T05:57:37.552Z,453.62
2019-02-09T05:58:37.552Z,446.99
2019-02-09T05:59:37.516Z,450.03
2019-02-09T06:00:37.525Z,450.88
2019-02-09T06:01:37.498Z,450.17
2019-02-09T06:02:37.497Z,446.43
2019-02-09T06:03:37.498Z,450.64
2019-02-09T06:04:37.464Z,457.58
2019-02-09T06:05:37.490Z,448.87
2019-02-09T06:06:37.452Z,452.30
2019-02-09T06:07:37.455Z,457.16
2019-02-09T06:08:37.433Z,457.51
2019-02-09T06:09:37.418Z,458.58
2019-02-09T06:10:37.404Z,459.41
2019-02-09T06:11:37.411Z,459.21
2019-02-09T06:12:37.373Z,449.65
2019-02-09T06:13:37.371Z,445.88
2019-02-09T06:14:37.361Z,458.53
2019-02-09T06:15:37.361Z,454.35
2019-02-09T06:16:37.377Z,464.15
2019-02-09T06:17:37.338Z,468.48
2019-02-09T06:18:37.313Z,465.76
2019-02-09T06:19:37.301Z,465.57
2019-02-09T06:20:37.350Z,482.77
2019-02-09T06:21:37.308Z,459.86
2019-02-09T06:22:37.319Z,463.72
2019-02-09T06:23:37.500Z,466.93
2019-02-09T06:24:37.265Z,454.79
2019-02-09T06:25:37.235Z,456.53
2019-02-09T06:26:37.276Z,470.68
2019-02-09T06:27:37.252Z,470.77
2019-02-09T06:28:37.253Z,458.81
2019-02-09T06:29:37.213Z,458.46
2019-02-09T06:30:37.189Z,462.42
2019-02-09T06:31:40.824Z,460.85
2019-02-09T06:32:37.190Z,453.03
2019-02-09T06:33:37.180Z,462.12
2019-02-09T06:34:37.151Z,461.41
2019-02-09T06:35:37.142Z,458.75
2019-02-09T06:36:37.167Z,457.58
2019-02-09T06:37:38.913Z,454.24
2019-02-09T06:38:37.107Z,457.64
2019-02-09T06:39:37.089Z,466.71
2019-02-09T06:40:37.085Z,469.06
2019-02-09T06:41:37.163Z,466.28
2019-02-09T06:42:37.046Z,464.28
2019-02-09T06:43:37.052Z,461.32
2019-02-09T06:44:37.030Z,462.38
2019-02-09T06:45:37.015Z,456.35
2019-02-09T06:46:37.023Z,457.24
2019-02-09T06:47:37.052Z,454.43
2019-02-09T06:48:37.020Z,458.43
2019-02-09T06:49:36.987Z,457.68
2019-02-09T06:50:36.984Z,451.68
2019-02-09T06:51:36.945Z,452.68
2019-02-09T06:52:36.968Z,453.39
2019-02-09T06:53:36.943Z,454.88
2019-02-09T06:54:36.920Z,453.20
2019-02-09T06:55:36.911Z,457.71
2019-02-09T06:56:36.917Z,453.03
2019-02-09T06:57:36.915Z,451.07
2019-02-09T06:58:36.895Z,452.17
2019-02-09T06:59:36.883Z,449.21
2019-02-09T07:00:36.868Z,452.53
2019-02-09T07:01:36.891Z,452.47
2019-02-09T07:02:36.855Z,454.98
2019-02-09T07:03:36.891Z,454.31
2019-02-09T07:04:36.820Z,450.01
2019-02-09T07:05:36.840Z,453.90
2019-02-09T07:06:36.803Z,454.87
2019-02-09T07:07:36.895Z,449.39
2019-02-09T07:08:36.781Z,457.10
2019-02-09T07:09:36.780Z,455.89
2019-02-09T07:10:36.970Z,457.41
2019-02-09T07:11:36.790Z,452.90
2019-02-09T07:12:36.748Z,449.55
2019-02-09T07:13:36.741Z,448.05
2019-02-09T07:14:36.940Z,452.42
2019-02-09T07:15:36.697Z,452.49
2019-02-09T07:16:36.674Z,454.26
2019-02-09T07:17:36.675Z,456.74
2019-02-09T07:18:36.670Z,454.87
2019-02-09T07:19:36.691Z,447.58
2019-02-09T07:20:36.678Z,449.19
2019-02-09T07:21:36.646Z,451.93
2019-02-09T07:22:36.862Z,453.23
2019-02-09T07:23:36.649Z,451.24
2019-02-09T07:24:36.621Z,454.46
2019-02-09T07:25:36.622Z,454.65
2019-02-09T07:26:36.565Z,449.57
2019-02-09T07:27:36.573Z,457.96
2019-02-09T07:28:36.545Z,457.60
2019-02-09T07:29:36.544Z,457.88
2019-02-09T07:30:36.535Z,457.82
2019-02-09T07:31:36.667Z,452.53
2019-02-09T07:32:36.521Z,451.32
2019-02-09T07:33:36.509Z,454.64
2019-02-09T07:34:36.561Z,456.22
2019-02-09T07:35:36.477Z,458.89
2019-02-09T07:36:36.508Z,455.81
2019-02-09T07:37:36.526Z,458.55
2019-02-09T07:38:36.469Z,453.29
2019-02-09T07:39:36.436Z,453.17
2019-02-09T07:40:36.517Z,455.46
2019-02-09T07:41:36.439Z,453.42
2019-02-09T07:42:36.432Z,461.54
2019-02-09T07:43:36.543Z,455.29
2019-02-09T07:44:36.384Z,460.69
2019-02-09T07:45:36.391Z,455.94
2019-02-09T07:46:36.384Z,459.97
2019-02-09T07:47:36.362Z,454.93
2019-02-09T07:48:36.362Z,457.24
2019-02-09T07:49:36.333Z,452.92
2019-02-09T07:50:36.343Z,448.18
2019-02-09T07:51:36.303Z,452.66
2019-02-09T07:52:36.346Z,447.19
2019-02-09T07:53:36.396Z,455.70
2019-02-09T07:54:36.301Z,457.71
2019-02-09T07:55:36.253Z,454.72
2019-02-09T07:56:36.367Z,451.41
2019-02-09T07:57:36.271Z,448.46
2019-02-09T07:58:36.283Z,451.57
2019-02-09T07:59:36.237Z,448.80
2019-02-09T08:00:36.198Z,458.91
2019-02-09T08:01:36.272Z,446.99
2019-02-09T08:02:36.221Z,454.27
2019-02-09T08:03:36.247Z,452.10
2019-02-09T08:04:36.194Z,448.84
2019-02-09T08:05:36.199Z,450.42
2019-02-09T08:06:36.150Z,450.59
2019-02-09T08:07:36.127Z,452.95
2019-02-09T08:08:36.140Z,450.75
2019-02-09T08:09:36.107Z,455.63
2019-02-09T08:10:36.105Z,452.57
2019-02-09T08:11:36.116Z,453.51
2019-02-09T08:12:36.070Z,456.74
2019-02-09T08:13:36.083Z,450.97
2019-02-09T08:14:36.072Z,449.38
2019-02-09T08:15:36.063Z,452.52
2019-02-09T08:16:36.032Z,456.60
2019-02-09T08:17:36.045Z,448.06
2019-02-09T08:18:36.019Z,456.32
2019-02-09T08:19:36.004Z,452.83
2019-02-09T08:20:35.994Z,456.49
2019-02-09T08:21:35.974Z,456.33
2019-02-09T08:22:35.966Z,457.25
2019-02-09T08:23:36.019Z,454.79
2019-02-09T08:24:36.045Z,449.85
2019-02-09T08:25:35.958Z,447.87
2019-02-09T08:26:35.986Z,454.41
2019-02-09T08:27:35.907Z,453.98
2019-02-09T08:28:35.947Z,456.04
2019-02-09T08:29:35.903Z,456.15
2019-02-09T08:30:35.927Z,456.52
2019-02-09T08:31:35.881Z,450.44
2019-02-09T08:32:35.849Z,454.73
2019-02-09T08:33:35.859Z,451.08
2019-02-09T08:34:35.918Z,447.08
2019-02-09T08:35:35.840Z,451.70
2019-02-09T08:36:35.816Z,453.33
2019-02-09T08:37:35.840Z,454.00
2019-02-09T08:38:35.831Z,452.87
2019-02-09T08:39:35.794Z,454.29
2019-02-09T08:40:35.781Z,453.02
2019-02-09T08:41:35.746Z,450.47
2019-02-09T08:42:35.779Z,454.82
2019-02-09T08:43:35.778Z,451.99
2019-02-09T08:44:35.736Z,446.48
2019-02-09T08:45:35.718Z,444.13
2019-02-09T08:46:35.731Z,445.92
2019-02-09T08:47:35.745Z,448.37
2019-02-09T08:48:36.699Z,448.80
2019-02-09T08:49:35.749Z,443.70
2019-02-09T08:50:35.701Z,444.56
2019-02-09T08:51:35.695Z,443.14
2019-02-09T08:52:37.327Z,443.98
2019-02-09T08:53:35.822Z,444.12
2019-02-09T08:54:35.663Z,443.99
2019-02-09T08:55:35.634Z,448.34
2019-02-09T08:56:35.611Z,450.59
2019-02-09T08:57:35.581Z,442.61
2019-02-09T08:58:35.562Z,444.35
2019-02-09T08:59:35.803Z,443.07
2019-02-09T09:00:35.585Z,440.14
2019-02-09T09:01:35.559Z,443.86
2019-02-09T09:02:35.524Z,447.06
2019-02-09T09:03:35.726Z,445.33
2019-02-09T09:04:35.793Z,447.73
2019-02-09T09:05:35.764Z,454.56
2019-02-09T09:06:35.552Z,464.64
2019-02-09T09:07:35.570Z,469.88
2019-02-09T09:08:35.484Z,456.71
2019-02-09T09:09:35.513Z,454.90
2019-02-09T09:10:35.432Z,454.34
2019-02-09T09:11:35.482Z,451.86
2019-02-09T09:12:35.437Z,445.55
2019-02-09T09:13:35.429Z,438.57
2019-02-09T09:14:35.403Z,443.30
2019-02-09T09:15:35.384Z,452.15
2019-02-09T09:16:35.413Z,446.97
2019-02-09T09:17:35.395Z,462.76
2019-02-09T09:18:35.437Z,446.20
2019-02-09T09:19:35.366Z,442.98
2019-02-09T09:20:35.329Z,426.65
2019-02-09T09:21:35.341Z,432.97
2019-02-09T09:22:35.312Z,396.02
2019-02-09T09:23:35.376Z,435.57
2019-02-09T09:24:35.358Z,435.87
2019-02-09T09:25:35.316Z,431.03
2019-02-09T09:26:35.265Z,432.08
2019-02-09T09:27:35.256Z,427.19
2019-02-09T09:28:35.347Z,388.60
2019-02-09T09:29:35.248Z,439.65
2019-02-09T09:30:35.260Z,383.52
2019-02-09T09:31:35.201Z,394.59
2019-02-09T09:32:35.212Z,389.69
2019-02-09T09:33:35.203Z,401.95
2019-02-09T09:34:35.268Z,390.98
2019-02-09T09:35:35.155Z,398.01
2019-02-09T09:36:35.153Z,384.10
2019-02-09T09:37:35.172Z,409.61
2019-02-09T09:38:35.199Z,417.91
2019-02-09T09:39:35.150Z,361.17
2019-02-09T09:40:35.130Z,395.08
2019-02-09T09:41:35.098Z,386.61
2019-02-09T09:42:35.103Z,424.84
2019-02-09T09:43:35.129Z,423.35
2019-02-09T09:44:35.056Z,428.89
2019-02-09T09:45:35.047Z,416.20
2019-02-09T09:46:35.066Z,360.27
2019-02-09T09:47:35.070Z,409.90
2019-02-09T09:48:35.107Z,421.80
2019-02-09T09:49:35.030Z,414.52
2019-02-09T09:50:35.040Z,427.51
2019-02-09T09:51:35.000Z,415.35
2019-02-09T09:52:35.003Z,452.14
2019-02-09T09:53:34.975Z,426.05
2019-02-09T09:54:34.977Z,400.34
2019-02-09T09:55:34.947Z,406.79
2019-02-09T09:56:34.940Z,427.55
2019-02-09T09:57:34.918Z,423.11
2019-02-09T09:58:34.937Z,454.79
2019-02-09T09:59:34.907Z,416.73
2019-02-09T10:00:34.924Z,397.21
2019-02-09T10:01:34.879Z,407.00
2019-02-09T10:02:36.517Z,444.00
2019-02-09T10:03:34.881Z,419.45
2019-02-09T10:04:34.858Z,439.66
2019-02-09T10:05:34.844Z,443.20
2019-02-09T10:06:34.822Z,396.95
2019-02-09T10:07:34.810Z,429.91
2019-02-09T10:08:34.806Z,416.98
2019-02-09T10:09:34.814Z,449.05
2019-02-09T10:10:34.823Z,344.11
2019-02-09T10:11:34.781Z,382.21
2019-02-09T10:12:34.806Z,429.11
2019-02-09T10:13:34.751Z,397.29
2019-02-09T10:14:34.776Z,381.54
2019-02-09T10:15:34.730Z,324.75
2019-02-09T10:16:34.719Z,378.01
2019-02-09T10:17:34.692Z,346.46
2019-02-09T10:18:34.693Z,442.89
2019-02-09T10:19:34.687Z,381.76
2019-02-09T10:20:34.685Z,408.19
2019-02-09T10:21:34.654Z,373.01
2019-02-09T10:22:34.652Z,394.97
2019-02-09T10:23:34.638Z,415.80
2019-02-09T10:24:34.628Z,359.51
2019-02-09T10:25:34.650Z,434.21
2019-02-09T10:26:34.604Z,397.41
2019-02-09T10:27:34.603Z,358.20
2019-02-09T10:28:34.580Z,331.13
2019-02-09T10:29:34.571Z,402.87
2019-02-09T10:30:34.563Z,367.52
2019-02-09T10:31:34.599Z,345.21
2019-02-09T10:32:34.543Z,380.90
2019-02-09T10:33:34.529Z,395.25
2019-02-09T10:34:34.509Z,357.51
2019-02-09T10:35:34.506Z,387.38
2019-02-09T10:36:34.499Z,374.02
2019-02-09T10:37:34.514Z,364.48
2019-02-09T10:38:34.481Z,360.03
2019-02-09T10:39:34.461Z,321.00
2019-02-09T10:40:34.442Z,363.03
2019-02-09T10:41:34.430Z,375.42
2019-02-09T10:42:34.442Z,415.40
2019-02-09T10:43:34.438Z,401.20
2019-02-09T10:44:34.420Z,381.79
2019-02-09T10:45:34.401Z,351.13
2019-02-09T10:46:34.379Z,371.55
2019-02-09T10:47:34.412Z,391.78
2019-02-09T10:48:34.362Z,420.96
2019-02-09T10:49:34.349Z,370.87
2019-02-09T10:50:34.346Z,393.95
2019-02-09T10:51:34.333Z,464.14
2019-02-09T10:52:34.312Z,388.51
2019-02-09T10:53:34.339Z,383.83
2019-02-09T10:54:34.295Z,405.70
2019-02-09T10:55:34.290Z,413.58
2019-02-09T10:56:34.275Z,422.73
2019-02-09T10:57:34.279Z,375.82
2019-02-09T10:58:34.341Z,383.57
2019-02-09T10:59:34.259Z,352.49
2019-02-09T11:00:34.218Z,424.19
2019-02-09T11:01:34.203Z,371.29
2019-02-09T11:02:34.207Z,348.39
2019-02-09T11:03:34.192Z,421.93
2019-02-09T11:04:34.235Z,381.05
2019-02-09T11:05:34.181Z,397.23
2019-02-09T11:06:34.160Z,401.76
2019-02-09T11:07:34.162Z,393.90
2019-02-09T11:08:34.180Z,363.39
2019-02-09T11:09:34.167Z,372.65
2019-02-09T11:10:34.119Z,428.26
2019-02-09T11:11:34.131Z,384.64
2019-02-09T11:12:34.091Z,409.58
2019-02-09T11:13:34.112Z,344.03
2019-02-09T11:14:34.083Z,430.77
2019-02-09T11:15:34.077Z,421.70
2019-02-09T11:16:34.060Z,418.11
2019-02-09T11:17:34.054Z,337.27
2019-02-09T11:18:34.027Z,348.65
2019-02-09T11:19:34.831Z,423.22
2019-02-09T11:20:34.006Z,490.44
2019-02-09T11:21:33.996Z,415.53
2019-02-09T11:22:34.044Z,429.67
2019-02-09T11:23:33.979Z,371.37
2019-02-09T11:24:33.963Z,386.02
2019-02-09T11:25:33.955Z,425.03
2019-02-09T11:26:33.947Z,377.90
2019-02-09T11:27:33.930Z,390.23
2019-02-09T11:28:33.953Z,426.86
2019-02-09T11:29:33.953Z,464.04
2019-02-09T11:30:33.898Z,384.87
2019-02-09T11:31:33.888Z,467.85
2019-02-09T11:32:33.874Z,393.83
2019-02-09T11:33:33.864Z,448.59
2019-02-09T11:34:33.887Z,468.04
2019-02-09T11:35:33.848Z,443.63
2019-02-09T11:36:33.835Z,406.39
2019-02-09T11:37:33.833Z,334.98
2019-02-09T11:38:33.809Z,451.65
2019-02-09T11:39:33.817Z,440.92
2019-02-09T11:40:33.799Z,425.11
2019-02-09T11:41:33.789Z,390.82
2019-02-09T11:42:33.762Z,389.77
2019-02-09T11:43:33.745Z,453.24
2019-02-09T11:44:40.890Z,493.65
2019-02-09T11:45:34.762Z,456.02
2019-02-09T11:46:33.722Z,476.35
2019-02-09T11:47:33.715Z,443.95
2019-02-09T11:48:33.699Z,415.05
2019-02-09T11:49:33.707Z,410.96
2019-02-09T11:50:33.673Z,417.81
2019-02-09T11:51:33.680Z,421.60
2019-02-09T11:52:33.680Z,446.74
2019-02-09T11:53:33.649Z,452.59
2019-02-09T11:54:33.645Z,416.29
2019-02-09T11:55:33.643Z,455.17
2019-02-09T11:56:33.608Z,458.72
2019-02-09T11:57:33.608Z,440.59
2019-02-09T11:58:33.695Z,470.41
2019-02-09T11:59:33.580Z,470.66
2019-02-09T12:00:33.685Z,437.75
2019-02-09T12:01:33.559Z,468.43
2019-02-09T12:02:33.558Z,480.96
2019-02-09T12:03:33.527Z,453.07
2019-02-09T12:04:33.606Z,437.83
2019-02-09T12:05:33.523Z,436.51
2019-02-09T12:06:33.585Z,458.29
2019-02-09T12:07:33.492Z,444.02
2019-02-09T12:08:33.532Z,496.14
2019-02-09T12:09:33.514Z,469.92
2019-02-09T12:10:33.471Z,464.99
2019-02-09T12:11:33.441Z,485.38
2019-02-09T12:12:33.489Z,480.16
2019-02-09T12:13:33.426Z,465.79
2019-02-09T12:14:33.463Z,446.07
2019-02-09T12:15:33.447Z,455.23
2019-02-09T12:16:33.403Z,455.23
2019-02-09T12:17:33.385Z,469.99
2019-02-09T12:18:33.393Z,443.61
2019-02-09T12:19:33.398Z,479.18
2019-02-09T12:20:33.352Z,452.63
2019-02-09T12:21:33.346Z,417.56
2019-02-09T12:22:33.321Z,488.01
2019-02-09T12:23:33.300Z,428.95
2019-02-09T12:24:33.291Z,430.44
2019-02-09T12:25:33.512Z,478.24
2019-02-09T12:26:33.311Z,450.70
2019-02-09T12:27:33.293Z,466.79
2019-02-09T12:28:33.298Z,483.50